Time;durP1;ratioP1;P1;durP2;ratioP2;P2;SDS_P1;SDS_P2;PMS_P1;PMS_P2;Temp;Humidity;BMP_temperature;BMP_pressure;BME280_temperature;BME280_humidity;BME280_pressure;Samples;Min_cycle;Max_cycle;Signal;HPM_P1;HPM_P2
2021/10/06 00:01:15;;;;;;;1.85;1.05;;;;;;;17.98;45.23;100565.38;4992763;28;20456;-80
2021/10/06 00:03:42;;;;;;;2.25;1.00;;;;;;;17.94;45.47;100571.38;4993579;28;20701;-80
2021/10/06 00:06:08;;;;;;;1.95;1.10;;;;;;;17.93;45.32;100580.63;4989160;28;20062;-80
2021/10/06 00:08:35;;;;;;;2.38;0.93;;;;;;;17.91;44.95;100577.16;4993373;28;20530;-80
2021/10/06 00:11:02;;;;;;;2.70;1.00;;;;;;;17.88;44.91;100586.56;4991916;28;20141;-81
2021/10/06 00:13:29;;;;;;;3.13;1.30;;;;;;;17.87;44.99;100582.13;4975913;28;20129;-79
2021/10/06 00:15:56;;;;;;;2.88;1.20;;;;;;;17.83;45.14;100587.03;4988824;28;20054;-80
2021/10/06 00:18:24;;;;;;;1.95;0.93;;;;;;;17.81;45.24;100585.47;4976277;28;20085;-80
2021/10/06 00:20:50;;;;;;;2.53;1.10;;;;;;;17.80;44.96;100589.22;4992210;28;20085;-80
2021/10/06 00:23:17;;;;;;;2.50;1.02;;;;;;;17.77;45.07;100593.16;4989009;28;20074;-80
2021/10/06 00:25:44;;;;;;;2.00;0.90;;;;;;;17.75;45.32;100589.69;4974326;28;20543;-79
2021/10/06 00:28:11;;;;;;;2.25;0.93;;;;;;;17.73;45.19;100589.00;4991906;28;20058;-80
2021/10/06 00:30:38;;;;;;;2.50;1.00;;;;;;;17.71;45.12;100580.03;4991805;28;20065;-80
2021/10/06 00:33:05;;;;;;;2.45;1.00;;;;;;;17.70;45.18;100582.97;4982230;28;20133;-80
2021/10/06 00:35:32;;;;;;;2.67;1.20;;;;;;;17.69;45.07;100590.34;4974744;28;20140;-79
2021/10/06 00:37:58;;;;;;;1.88;0.90;;;;;;;17.68;45.06;100588.59;4988688;28;20054;-80
2021/10/06 00:40:25;;;;;;;3.10;1.23;;;;;;;17.68;45.35;100596.84;4991011;28;20058;-80
2021/10/06 00:42:51;;;;;;;3.03;1.10;;;;;;;17.68;45.06;100590.47;4993069;28;20042;-80
2021/10/06 00:45:19;;;;;;;2.70;1.13;;;;;;;17.67;44.92;100586.00;4975110;28;20509;-80
2021/10/06 00:47:46;;;;;;;2.35;1.33;;;;;;;17.66;45.08;100592.50;4992293;28;20121;-79
2021/10/06 00:50:12;;;;;;;2.63;1.13;;;;;;;17.65;44.96;100601.75;4974505;28;20058;-80
2021/10/06 00:52:39;;;;;;;2.70;1.15;;;;;;;17.63;44.82;100604.66;4997441;28;20049;-80
2021/10/06 00:55:06;;;;;;;1.27;0.70;;;;;;;17.61;45.00;100612.16;4969280;28;20469;-80
2021/10/06 00:57:32;;;;;;;4.35;1.42;;;;;;;17.60;45.20;100601.34;4994124;28;20082;-80
2021/10/06 00:59:59;;;;;;;3.67;1.30;;;;;;;17.58;44.92;100604.22;4996957;28;20051;-80
2021/10/06 01:02:26;;;;;;;2.28;1.02;;;;;;;17.56;45.33;100606.25;4992535;28;20549;-80
2021/10/06 01:04:53;;;;;;;3.20;1.05;;;;;;;17.56;45.15;100613.63;4974504;28;20137;-80
2021/10/06 01:07:20;;;;;;;4.15;1.40;;;;;;;17.55;44.98;100617.38;4974194;28;20054;-80
2021/10/06 01:09:47;;;;;;;2.92;1.25;;;;;;;17.54;45.41;100615.69;4989295;28;20137;-79
2021/10/06 01:12:14;;;;;;;2.03;0.95;;;;;;;17.50;45.08;100623.34;4975489;28;20081;-80
2021/10/06 01:14:40;;;;;;;1.63;0.82;;;;;;;17.50;45.53;100626.97;4971148;28;20089;-79
2021/10/06 01:17:07;;;;;;;2.85;1.08;;;;;;;17.48;45.33;100618.00;4974459;28;20120;-80
2021/10/06 01:19:34;;;;;;;2.58;1.10;;;;;;;17.47;45.26;100623.63;4966215;28;20405;-80
2021/10/06 01:22:00;;;;;;;3.38;1.13;;;;;;;17.47;45.50;100624.50;4986019;28;20073;-80
2021/10/06 01:24:28;;;;;;;3.08;1.40;;;;;;;17.47;45.25;100623.63;4969552;28;20047;-80
2021/10/06 01:26:56;;;;;;;4.10;1.13;;;;;;;17.46;45.27;100624.66;4983802;28;20129;-80
2021/10/06 01:29:23;;;;;;;2.42;0.95;;;;;;;17.44;45.15;100623.97;4991259;28;20077;-80
2021/10/06 01:31:50;;;;;;;4.00;1.58;;;;;;;17.42;45.57;100623.25;4992702;28;20046;-80
2021/10/06 01:34:19;;;;;;;1.70;0.80;;;;;;;17.43;45.54;100638.69;4974433;28;20098;-80
2021/10/06 01:36:51;;;;;;;3.67;1.10;;;;;;;17.43;45.62;100644.19;4992271;28;20387;-80
2021/10/06 01:39:20;;;;;;;1.35;0.90;;;;;;;17.38;45.43;100643.75;4973291;28;20453;-80
2021/10/06 01:41:48;;;;;;;2.97;1.20;;;;;;;17.38;45.53;100643.75;4979037;28;20524;-80
2021/10/06 01:44:16;;;;;;;3.05;0.93;;;;;;;17.37;45.30;100642.06;4995048;28;20112;-80
2021/10/06 01:46:43;;;;;;;3.83;1.10;;;;;;;17.34;45.51;100651.44;4994864;28;20043;-80
2021/10/06 01:49:10;;;;;;;4.15;1.13;;;;;;;17.32;45.31;100650.72;4994542;28;20054;-80
2021/10/06 01:51:37;;;;;;;3.05;1.08;;;;;;;17.30;45.35;100652.75;4995374;28;20791;-80
2021/10/06 01:54:04;;;;;;;1.77;0.90;;;;;;;17.29;45.57;100655.66;4978159;28;20137;-81
2021/10/06 01:56:31;;;;;;;4.10;1.00;;;;;;;17.29;45.61;100650.19;4978486;28;20104;-80
2021/10/06 01:58:58;;;;;;;2.65;1.00;;;;;;;17.28;45.49;100663.03;4995604;28;20050;-80
2021/10/06 02:01:25;;;;;;;3.38;1.08;;;;;;;17.26;45.47;100670.53;4965889;28;20086;-81
2021/10/06 02:03:52;;;;;;;2.42;1.00;;;;;;;17.25;45.58;100660.56;4986834;28;20046;-80
2021/10/06 02:06:19;;;;;;;3.05;1.00;;;;;;;17.27;45.43;100658.56;4955148;28;20054;-80
2021/10/06 02:08:46;;;;;;;4.65;1.00;;;;;;;17.27;45.57;100658.56;4978789;28;20086;-80
2021/10/06 02:11:12;;;;;;;4.53;1.20;;;;;;;17.27;45.71;100654.94;4950919;28;20050;-81
2021/10/06 02:13:39;;;;;;;4.25;1.20;;;;;;;17.27;46.06;100658.56;4993164;28;20129;-80
2021/10/06 02:16:06;;;;;;;6.03;1.38;;;;;;;17.29;45.90;100651.06;4953157;28;20089;-81
2021/10/06 02:18:33;;;;;;;2.72;1.10;;;;;;;17.29;45.83;100645.56;4975451;28;20493;-80
2021/10/06 02:20:59;;;;;;;2.55;1.17;;;;;;;17.31;45.38;100656.34;4961090;28;20081;-81
2021/10/06 02:23:26;;;;;;;2.30;0.90;;;;;;;17.32;45.63;100645.25;4990264;28;20082;-81
2021/10/06 02:25:52;;;;;;;3.75;1.02;;;;;;;17.32;46.08;100647.97;4951259;28;20077;-81
2021/10/06 02:28:19;;;;;;;2.85;0.95;;;;;;;17.34;45.81;100656.06;4985886;28;20049;-81
2021/10/06 02:30:46;;;;;;;3.17;1.40;;;;;;;17.36;45.92;100656.78;4984052;28;20081;-80
2021/10/06 02:33:13;;;;;;;2.10;1.05;;;;;;;17.37;45.70;100655.78;4993078;28;20046;-80
2021/10/06 02:35:39;;;;;;;3.25;1.30;;;;;;;17.38;45.57;100655.59;4952659;28;20137;-81
2021/10/06 02:38:06;;;;;;;2.90;1.30;;;;;;;17.38;45.99;100658.34;4995214;28;20050;-81
2021/10/06 02:40:33;;;;;;;2.72;1.08;;;;;;;17.38;45.58;100655.59;4956767;28;20073;-81
2021/10/06 02:42:59;;;;;;;3.45;1.00;;;;;;;17.40;46.09;100658.19;4977996;28;20434;-80
2021/10/06 02:45:26;;;;;;;1.85;1.00;;;;;;;17.39;45.83;100662.81;4947894;28;20130;-81
2021/10/06 02:47:52;;;;;;;3.28;1.15;;;;;;;17.41;45.72;100654.44;4975399;28;20078;-80
2021/10/06 02:50:23;;;;;;;3.03;1.10;;;;;;;17.43;45.59;100660.66;4969869;28;20104;-81
2021/10/06 02:52:50;;;;;;;3.45;1.30;;;;;;;17.41;45.64;100668.16;4996460;28;20583;-81
2021/10/06 02:55:17;;;;;;;3.20;1.40;;;;;;;17.41;45.42;100660.81;4965660;28;20137;-80
2021/10/06 02:57:44;;;;;;;3.90;1.48;;;;;;;17.40;45.63;100664.56;4975279;28;20125;-81
2021/10/06 03:00:11;;;;;;;3.55;1.23;;;;;;;17.40;45.62;100671.94;4966457;28;20049;-80
2021/10/06 03:02:41;;;;;;;4.18;1.40;;;;;;;17.39;45.56;100668.31;4992753;28;20046;-80
2021/10/06 03:05:12;;;;;;;3.42;1.55;;;;;;;17.40;45.70;100667.31;4991541;28;20144;-80
2021/10/06 03:07:39;;;;;;;3.28;1.70;;;;;;;17.40;45.31;100667.31;4990141;28;20485;-81
2021/10/06 03:10:09;;;;;;;4.50;1.67;;;;;;;17.41;45.64;100662.69;4968431;28;20046;-81
2021/10/06 03:12:35;;;;;;;3.65;1.40;;;;;;;17.37;45.53;100667.63;4994066;28;20043;-81
2021/10/06 03:15:04;;;;;;;3.03;1.40;;;;;;;17.39;45.40;100667.44;4950627;28;20525;-80
2021/10/06 03:17:30;;;;;;;4.82;1.52;;;;;;;17.36;45.63;100665.91;4991996;28;20133;-80
2021/10/06 03:19:57;;;;;;;3.80;1.50;;;;;;;17.35;45.60;100669.66;4984297;28;20080;-80
2021/10/06 03:22:23;;;;;;;3.08;1.50;;;;;;;17.33;45.43;100668.94;4998928;28;20138;-80
2021/10/06 03:24:50;;;;;;;3.97;1.35;;;;;;;17.33;45.50;100659.81;4944514;28;20506;-81
2021/10/06 03:27:17;;;;;;;3.25;1.33;;;;;;;17.33;45.50;100668.06;4984170;28;20437;-81
2021/10/06 03:29:44;;;;;;;3.00;1.20;;;;;;;17.31;45.64;100662.72;4974335;28;20066;-82
2021/10/06 03:32:11;;;;;;;3.00;1.23;;;;;;;17.30;45.27;100669.22;4993701;28;20082;-80
2021/10/06 03:34:37;;;;;;;2.80;1.40;;;;;;;17.28;45.63;100684.13;4966368;28;20080;-80
2021/10/06 03:37:04;;;;;;;3.65;1.08;;;;;;;17.29;45.18;100674.88;4977119;28;20623;-81
2021/10/06 03:39:31;;;;;;;4.28;1.50;;;;;;;17.27;45.23;100674.16;4948720;28;20047;-81
2021/10/06 03:41:57;;;;;;;3.88;1.40;;;;;;;17.27;45.65;100682.38;4985320;28;20096;-81
2021/10/06 03:44:24;;;;;;;2.75;1.38;;;;;;;17.24;45.73;100690.91;4956694;28;20058;-79
2021/10/06 03:46:51;;;;;;;6.38;1.52;;;;;;;17.23;45.68;100678.19;4977475;28;20050;-80
2021/10/06 03:49:17;;;;;;;3.22;1.73;;;;;;;17.23;45.68;100687.28;4954637;28;20466;-80
2021/10/06 03:51:44;;;;;;;4.55;1.50;;;;;;;17.23;45.34;100691.91;4978805;28;20078;-81
2021/10/06 03:54:11;;;;;;;4.78;1.58;;;;;;;17.23;45.79;100687.28;4962148;28;20066;-81
2021/10/06 03:56:38;;;;;;;3.90;1.30;;;;;;;17.21;45.83;100697.59;4970208;28;20438;-81
2021/10/06 03:59:04;;;;;;;3.45;1.50;;;;;;;17.21;45.36;100704.94;4946505;28;20059;-80
2021/10/06 04:01:31;;;;;;;5.75;1.65;;;;;;;17.22;45.79;100701.16;4963189;28;20046;-80
2021/10/06 04:03:58;;;;;;;2.83;1.13;;;;;;;17.22;45.39;100703.91;4956295;28;21029;-80
2021/10/06 04:06:25;;;;;;;3.13;1.20;;;;;;;17.21;45.77;100700.31;4971617;28;20054;-79
2021/10/06 04:08:51;;;;;;;3.63;1.23;;;;;;;17.22;45.53;100706.66;4956146;28;20087;-79
2021/10/06 04:11:18;;;;;;;2.78;1.00;;;;;;;17.23;45.80;100701.00;4930914;28;20055;-80
2021/10/06 04:13:45;;;;;;;2.58;1.10;;;;;;;17.24;45.67;100713.72;4972080;28;20089;-81
2021/10/06 04:16:11;;;;;;;3.67;1.35;;;;;;;17.22;45.71;100704.78;4958128;28;20823;-80
2021/10/06 04:18:38;;;;;;;5.20;1.15;;;;;;;17.22;45.69;100706.66;4974894;28;20061;-80
2021/10/06 04:21:04;;;;;;;3.33;1.20;;;;;;;17.21;45.50;100708.56;4963278;28;20465;-79
2021/10/06 04:23:31;;;;;;;3.50;1.30;;;;;;;17.22;45.63;100713.00;4992808;28;20046;-78
2021/10/06 04:25:58;;;;;;;3.63;1.20;;;;;;;17.21;45.57;100713.19;4964887;28;20085;-80
2021/10/06 04:28:24;;;;;;;3.22;1.10;;;;;;;17.22;45.35;100718.50;4993732;28;20481;-80
2021/10/06 04:30:51;;;;;;;3.83;1.45;;;;;;;17.22;45.70;100717.63;4953211;28;20094;-83
2021/10/06 04:33:18;;;;;;;3.40;1.42;;;;;;;17.20;45.63;100715.06;4969932;28;20046;-82
2021/10/06 04:35:44;;;;;;;3.30;1.20;;;;;;;17.21;45.67;100714.03;4948695;28;20050;-82
2021/10/06 04:38:11;;;;;;;2.15;0.95;;;;;;;17.21;45.41;100721.41;4992062;28;20053;-81
2021/10/06 04:40:38;;;;;;;3.38;1.30;;;;;;;17.21;45.79;100729.63;4974682;28;20113;-81
2021/10/06 04:43:10;;;;;;;4.00;1.05;;;;;;;17.22;45.73;100726.72;4987465;28;20078;-82
2021/10/06 04:45:38;;;;;;;2.95;1.30;;;;;;;17.21;45.62;100730.50;4951803;28;20450;-81
2021/10/06 04:48:05;;;;;;;5.78;1.50;;;;;;;17.19;45.84;100738.00;4990293;28;20046;-81
2021/10/06 04:50:32;;;;;;;2.65;1.20;;;;;;;17.20;45.40;100741.63;4942347;28;20058;-81
2021/10/06 04:52:58;;;;;;;3.58;1.40;;;;;;;17.19;45.71;100735.28;4975730;28;20038;-82
2021/10/06 04:55:26;;;;;;;4.13;1.65;;;;;;;17.19;45.42;100734.41;4966032;28;20051;-81
2021/10/06 04:57:54;;;;;;;4.90;1.45;;;;;;;17.20;45.63;100741.63;4990274;28;20528;-81
2021/10/06 05:00:21;;;;;;;3.33;1.33;;;;;;;17.21;45.70;100740.63;4992299;28;20058;-81
2021/10/06 05:02:48;;;;;;;2.70;1.23;;;;;;;17.22;45.56;100736.81;5000254;28;20038;-82
2021/10/06 05:05:15;;;;;;;3.28;1.40;;;;;;;17.23;45.46;100741.31;4935192;28;20046;-79
2021/10/06 05:07:41;;;;;;;3.72;1.35;;;;;;;17.25;45.71;100742.03;4982392;28;20073;-80
2021/10/06 05:10:08;;;;;;;4.07;1.35;;;;;;;17.26;45.60;100744.63;4991520;28;20116;-81
2021/10/06 05:12:35;;;;;;;4.90;1.20;;;;;;;17.26;45.30;100746.50;4974777;28;20489;-81
2021/10/06 05:15:03;;;;;;;3.45;1.40;;;;;;;17.26;45.53;100741.88;4969671;28;20050;-81
2021/10/06 05:17:29;;;;;;;3.95;1.30;;;;;;;17.26;45.57;100746.50;4985592;28;20077;-80
2021/10/06 05:19:56;;;;;;;2.30;1.17;;;;;;;17.25;45.20;100755.75;4949927;28;20082;-80
2021/10/06 05:22:23;;;;;;;2.83;1.10;;;;;;;17.25;45.30;100756.63;4988628;28;20133;-81
2021/10/06 05:24:49;;;;;;;5.28;1.20;;;;;;;17.24;45.24;100745.78;4951689;28;20081;-80
2021/10/06 05:27:16;;;;;;;4.80;1.85;;;;;;;17.24;45.39;100749.41;4998652;28;20109;-80
2021/10/06 05:29:46;;;;;;;2.80;0.88;;;;;;;17.24;45.29;100745.78;4993895;28;20494;-81
2021/10/06 05:32:12;;;;;;;3.95;1.30;;;;;;;17.25;45.20;100747.53;4960144;28;20047;-80
2021/10/06 05:34:39;;;;;;;4.38;1.60;;;;;;;17.22;45.38;100748.66;4966315;28;20062;-80
2021/10/06 05:37:06;;;;;;;3.38;1.27;;;;;;;17.23;45.03;100757.78;4994686;28;20050;-80
2021/10/06 05:39:34;;;;;;;4.60;1.27;;;;;;;17.24;44.98;100765.00;4969685;28;20472;-80
2021/10/06 05:42:00;;;;;;;4.90;1.15;;;;;;;17.22;45.25;100758.78;4995398;28;20082;-80
2021/10/06 05:44:29;;;;;;;2.08;1.10;;;;;;;17.21;45.36;100757.94;4995496;28;20054;-80
2021/10/06 05:46:55;;;;;;;4.55;1.05;;;;;;;17.22;45.20;100767.00;4977406;28;20425;-81
2021/10/06 05:49:22;;;;;;;4.28;1.23;;;;;;;17.21;44.96;100763.44;4959811;28;20050;-79
2021/10/06 05:51:48;;;;;;;2.85;1.20;;;;;;;17.22;45.28;100767.00;4979567;28;20104;-80
2021/10/06 05:54:15;;;;;;;3.40;1.40;;;;;;;17.22;45.41;100765.13;5002130;28;20481;-80
2021/10/06 05:56:42;;;;;;;2.47;1.05;;;;;;;17.22;45.22;100765.13;4976011;28;20046;-80
2021/10/06 05:59:08;;;;;;;2.45;1.20;;;;;;;17.21;45.30;100768.06;4945545;28;20058;-80
2021/10/06 06:01:35;;;;;;;2.25;1.27;;;;;;;17.22;45.14;100764.25;4972137;28;20086;-79
2021/10/06 06:04:02;;;;;;;3.35;1.20;;;;;;;17.19;45.31;100759.09;4959540;28;20045;-84
2021/10/06 06:06:29;;;;;;;4.65;1.58;;;;;;;17.21;45.46;100768.91;4957182;28;20078;-83
2021/10/06 06:08:55;;;;;;;4.55;1.10;;;;;;;17.21;45.39;100766.16;4975428;28;21593;-82
2021/10/06 06:11:22;;;;;;;3.35;1.33;;;;;;;17.20;45.24;100774.53;4978394;28;20464;-81
2021/10/06 06:13:50;;;;;;;4.25;1.77;;;;;;;17.19;45.74;100773.69;4975389;28;20054;-76
2021/10/06 06:16:17;;;;;;;3.20;1.45;;;;;;;17.19;45.96;100767.31;4986318;28;20074;-80
2021/10/06 06:18:43;;;;;;;2.33;1.10;;;;;;;17.19;45.96;100772.81;4972397;28;20054;-80
2021/10/06 06:21:12;;;;;;;2.85;1.30;;;;;;;17.24;45.66;100778.72;4945277;28;20153;-76
2021/10/06 06:23:40;;;;;;;4.70;2.00;;;;;;;17.24;45.99;100773.22;4990044;28;20054;-76
2021/10/06 06:26:08;;;;;;;3.35;1.20;;;;;;;17.21;45.93;100776.28;4957161;28;20137;-77
2021/10/06 06:28:37;;;;;;;3.15;1.20;;;;;;;17.21;45.74;100781.78;4972672;28;20042;-77
2021/10/06 06:31:04;;;;;;;2.78;1.20;;;;;;;17.19;46.02;100783.78;4963966;28;20641;-77
2021/10/06 06:33:31;;;;;;;3.50;1.25;;;;;;;17.20;46.15;100785.53;4989778;28;20046;-76
2021/10/06 06:35:59;;;;;;;3.20;1.10;;;;;;;17.17;45.91;100794.03;4987604;28;20129;-75
2021/10/06 06:38:29;;;;;;;4.28;1.15;;;;;;;17.19;46.24;100797.50;4989853;28;20050;-76
2021/10/06 06:40:56;;;;;;;4.18;1.13;;;;;;;17.16;45.93;100801.41;4964289;28;20140;-75
2021/10/06 06:43:23;;;;;;;2.40;0.93;;;;;;;17.16;46.04;100797.78;4990867;28;20100;-76
2021/10/06 06:45:50;;;;;;;4.20;1.58;;;;;;;17.16;46.06;100800.53;4988802;28;20054;-76
2021/10/06 06:48:16;;;;;;;2.45;0.93;;;;;;;17.16;46.12;100808.75;4991264;28;20161;-76
2021/10/06 06:50:45;;;;;;;3.80;1.15;;;;;;;17.17;46.45;100810.50;4948656;28;20104;-75
2021/10/06 06:53:12;;;;;;;3.45;1.23;;;;;;;17.15;46.07;100813.38;4991004;28;20096;-76
2021/10/06 06:55:38;;;;;;;3.53;1.20;;;;;;;17.13;46.26;100816.25;4964078;28;20101;-75
2021/10/06 06:58:05;;;;;;;3.78;1.10;;;;;;;17.13;46.41;100821.75;4973632;28;20090;-75
2021/10/06 07:00:31;;;;;;;3.22;1.13;;;;;;;17.12;46.35;100827.41;4972913;28;20536;-74
2021/10/06 07:02:58;;;;;;;4.93;1.55;;;;;;;17.11;46.61;100843.00;4991385;28;20046;-74
2021/10/06 07:05:28;;;;;;;2.60;1.17;;;;;;;17.08;46.24;100840.53;4989735;28;20082;-75
2021/10/06 07:07:55;;;;;;;3.47;1.00;;;;;;;17.07;46.36;100836.06;4990341;28;20120;-75
2021/10/06 07:10:22;;;;;;;2.30;0.98;;;;;;;17.06;46.99;100836.19;4989306;28;20061;-75
2021/10/06 07:12:49;;;;;;;4.15;1.10;;;;;;;17.04;46.92;100833.63;4981287;28;20087;-75
2021/10/06 07:15:16;;;;;;;2.58;0.98;;;;;;;17.04;46.72;100843.72;4989370;28;20505;-75
2021/10/06 07:17:43;;;;;;;4.63;1.25;;;;;;;17.04;46.70;100836.38;4990314;28;20054;-75
2021/10/06 07:20:09;;;;;;;3.42;1.15;;;;;;;17.03;46.93;100848.34;4963424;28;20089;-75
2021/10/06 07:22:36;;;;;;;2.35;0.90;;;;;;;17.01;46.90;100831.16;4990389;28;20081;-75
2021/10/06 07:25:04;;;;;;;2.88;1.10;;;;;;;17.01;46.98;100847.59;4989174;28;20549;-76
2021/10/06 07:27:34;;;;;;;3.28;0.90;;;;;;;17.03;47.03;100842.00;4989994;28;20093;-75
2021/10/06 07:30:02;;;;;;;2.53;0.98;;;;;;;17.00;47.31;100842.25;4990135;28;20387;-75
2021/10/06 07:32:28;;;;;;;2.05;0.90;;;;;;;17.00;47.31;100843.13;4990851;28;20070;-75
2021/10/06 07:34:55;;;;;;;3.67;1.38;;;;;;;17.02;47.18;100838.38;4964369;28;20121;-75
2021/10/06 07:37:22;;;;;;;4.35;1.05;;;;;;;17.02;47.11;100848.47;4988208;28;20474;-75
2021/10/06 07:39:48;;;;;;;3.80;1.00;;;;;;;17.01;47.25;100844.88;4966247;28;20157;-76
2021/10/06 07:42:15;;;;;;;3.45;1.20;;;;;;;17.01;47.20;100855.84;4989383;28;20050;-75
2021/10/06 07:44:46;;;;;;;4.38;1.33;;;;;;;17.03;47.32;100851.09;4989146;28;20088;-76
2021/10/06 07:47:14;;;;;;;4.68;1.75;;;;;;;17.01;47.18;100852.22;4989641;28;20128;-75
2021/10/06 07:49:41;;;;;;;3.35;1.02;;;;;;;17.00;47.19;100851.34;4984988;28;20042;-76
2021/10/06 07:52:10;;;;;;;2.78;1.08;;;;;;;17.01;47.05;100853.09;4989864;28;20054;-76
2021/10/06 07:54:38;;;;;;;2.90;1.02;;;;;;;17.02;47.57;100853.97;4952916;28;20457;-76
2021/10/06 07:57:04;;;;;;;3.47;1.08;;;;;;;17.03;47.54;100858.44;4970094;28;20062;-75
2021/10/06 07:59:32;;;;;;;3.17;1.27;;;;;;;17.04;47.29;100860.19;4988036;28;20099;-75
2021/10/06 08:01:58;;;;;;;3.20;1.02;;;;;;;17.04;47.50;100861.06;4989902;28;20057;-75
2021/10/06 08:04:26;;;;;;;2.95;1.17;;;;;;;17.05;47.21;100856.41;4988447;28;20046;-75
2021/10/06 08:06:53;;;;;;;3.28;1.58;;;;;;;17.07;47.38;100866.22;4990571;28;20486;-76
2021/10/06 08:09:20;;;;;;;4.28;1.33;;;;;;;17.07;47.43;100863.50;4988379;28;20069;-76
2021/10/06 08:11:48;;;;;;;3.42;1.30;;;;;;;17.09;47.37;100860.59;4989775;28;20054;-75
2021/10/06 08:14:14;;;;;;;4.68;1.20;;;;;;;17.07;47.15;100862.63;4965543;28;20069;-76
2021/10/06 08:16:41;;;;;;;1.95;1.15;;;;;;;17.05;47.09;100857.28;5001862;28;20155;-76
2021/10/06 08:19:08;;;;;;;4.20;1.40;;;;;;;17.03;47.20;100867.53;4952313;28;20054;-76
2021/10/06 08:21:35;;;;;;;5.15;1.10;;;;;;;17.02;46.93;100875.91;4972184;28;20046;-75
2021/10/06 08:24:02;;;;;;;4.05;1.30;;;;;;;16.98;47.45;100869.81;4964102;28;20053;-76
2021/10/06 08:26:29;;;;;;;3.72;1.27;;;;;;;16.96;47.22;100873.75;4987961;28;20317;-76
2021/10/06 08:28:55;;;;;;;3.60;1.25;;;;;;;16.95;47.00;100878.38;4989566;28;20145;-76
2021/10/06 08:31:23;;;;;;;3.40;1.58;;;;;;;16.96;47.21;100888.31;4988569;28;20046;-76
2021/10/06 08:33:50;;;;;;;3.30;1.67;;;;;;;16.97;47.13;100878.19;4989537;28;20050;-76
2021/10/06 08:36:17;;;;;;;3.33;1.10;;;;;;;16.95;47.37;100882.97;4987881;28;20046;-76
2021/10/06 08:38:43;;;;;;;2.70;1.45;;;;;;;16.94;47.25;100898.56;4984757;28;20117;-76
2021/10/06 08:41:10;;;;;;;2.90;1.20;;;;;;;16.95;47.52;100896.69;4962664;28;20556;-77
2021/10/06 08:43:38;;;;;;;5.53;1.60;;;;;;;16.95;47.31;100897.56;4989073;28;20077;-76
2021/10/06 08:46:05;;;;;;;2.10;1.05;;;;;;;16.96;47.60;100887.47;4987708;28;20133;-77
2021/10/06 08:48:31;;;;;;;3.00;1.20;;;;;;;16.95;47.24;100896.69;4988849;28;20077;-76
2021/10/06 08:50:58;;;;;;;2.60;1.05;;;;;;;16.94;47.13;100893.09;4987442;28;20073;-77
2021/10/06 08:53:45;;;;;;;2.03;0.93;;;;;;;16.95;47.17;100885.72;4999688;28;20057;-77
2021/10/06 08:56:11;;;;;;;1.85;0.90;;;;;;;16.96;47.08;100895.69;4961377;28;20556;-77
2021/10/06 08:58:38;;;;;;;2.50;1.00;;;;;;;16.97;47.09;100891.91;4988759;28;20504;-78
2021/10/06 09:01:04;;;;;;;3.50;1.10;;;;;;;16.97;47.09;100895.53;4978839;28;20092;-77
2021/10/06 09:03:34;;;;;;;3.08;1.08;;;;;;;16.99;47.23;100898.13;4989234;28;20135;-78
2021/10/06 09:06:05;;;;;;;3.83;1.00;;;;;;;16.98;47.12;100905.50;4961250;28;20078;-78
2021/10/06 09:08:34;;;;;;;3.13;1.20;;;;;;;16.99;47.20;100903.63;4972156;28;20090;-78
2021/10/06 09:11:02;;;;;;;3.55;1.27;;;;;;;16.98;47.03;100913.72;4964991;28;20081;-77
2021/10/06 09:13:35;;;;;;;3.10;1.02;;;;;;;16.98;47.20;100910.97;4992621;28;20172;-77
2021/10/06 09:16:02;;;;;;;2.50;1.52;;;;;;;17.00;46.84;100908.97;4950738;28;20050;-77
2021/10/06 09:18:32;;;;;;;2.50;1.25;;;;;;;17.02;47.20;100922.53;4990389;28;20056;-77
2021/10/06 09:21:04;;;;;;;1.50;0.70;;;;;;;17.00;47.31;100921.81;4961615;28;20071;-78
2021/10/06 09:23:36;;;;;;;3.97;1.33;;;;;;;16.98;47.62;100919.19;4989218;28;20502;-78
2021/10/06 09:26:06;;;;;;;2.42;1.00;;;;;;;16.98;47.02;100926.56;4970448;28;20051;-78
2021/10/06 09:28:39;;;;;;;3.75;1.65;;;;;;;17.00;47.24;100930.91;4989234;28;20085;-78
2021/10/06 09:31:12;;;;;;;3.33;1.40;;;;;;;17.00;47.69;100941.00;4977237;28;20050;-77
2021/10/06 09:33:44;;;;;;;;;;;;;;;16.75;47.80;100945.13;4989767;28;20133;-78
2021/10/06 09:36:12;;;;;;;4.37;1.40;;;;;;;16.97;47.75;100938.53;4988277;28;19993;-78
2021/10/06 09:38:40;;;;;;;2.80;1.15;;;;;;;17.01;47.05;100932.66;4971610;28;20104;-77
2021/10/06 09:41:25;;;;;;;3.10;1.30;;;;;;;17.03;47.26;100951.72;4988053;28;20051;-76
2021/10/06 09:43:59;;;;;;;3.70;1.80;;;;;;;17.06;47.31;100946.78;4986947;28;20556;-77
2021/10/06 09:46:56;;;;;;;3.80;2.00;;;;;;;17.04;47.63;100946.09;4968083;28;20149;-77
2021/10/06 09:49:34;;;;;;;5.53;2.90;;;;;;;17.05;47.76;100949.66;4971796;28;20050;-76
2021/10/06 09:52:21;;;;;;;3.03;1.77;;;;;;;17.03;47.87;100968.16;4986379;28;20204;-77
2021/10/06 09:54:52;;;;;;;3.00;1.10;;;;;;;17.05;48.00;100957.91;5001781;28;20418;-77
2021/10/06 09:57:42;;;;;;;3.42;1.00;;;;;;;17.02;47.74;100958.19;4989922;28;20046;-77
2021/10/06 10:00:20;;;;;;;2.00;0.85;;;;;;;17.04;48.29;100964.41;4966728;28;20062;-77
2021/10/06 10:02:47;;;;;;;2.17;0.80;;;;;;;17.02;47.95;100960.94;4991563;28;20055;-77
2021/10/06 10:05:15;;;;;;;2.58;1.10;;;;;;;17.03;48.31;100971.78;4991465;28;20054;-77
2021/10/06 10:07:42;;;;;;;2.55;0.70;;;;;;;17.04;47.98;100961.69;4974429;28;20066;-77
2021/10/06 10:10:11;;;;;;;0.95;0.75;;;;;;;17.08;48.24;100961.25;4991298;28;20058;-77
2021/10/06 10:12:40;;;;;;;2.50;0.85;;;;;;;17.11;47.92;100971.06;4992368;28;20059;-77
2021/10/06 10:15:08;;;;;;;1.13;0.68;;;;;;;17.10;48.09;100975.69;4988054;28;20512;-79
2021/10/06 10:17:35;;;;;;;2.50;1.10;;;;;;;17.11;48.06;100982.03;4991310;28;20056;-79
2021/10/06 10:20:10;;;;;;;0.70;0.60;;;;;;;17.15;48.43;100975.25;4973604;28;20066;-78
2021/10/06 10:22:40;;;;;;;1.70;0.90;;;;;;;17.16;48.57;100982.47;4974847;28;20126;-78
2021/10/06 10:25:30;;;;;;;3.08;1.23;;;;;;;17.20;48.40;100991.31;4990874;28;20046;-79
2021/10/06 10:28:15;;;;;;;2.83;0.98;;;;;;;17.19;48.34;100992.31;4991927;28;20105;-79
2021/10/06 10:30:54;;;;;;;1.58;0.85;;;;;;;17.21;48.33;100990.28;4978375;28;20046;-79
2021/10/06 10:33:48;;;;;;;1.30;0.65;;;;;;;17.18;48.33;100994.19;4992427;28;20047;-79
2021/10/06 10:36:34;;;;;;;2.22;0.60;;;;;;;17.16;48.70;101000.81;4981046;28;20050;-79
2021/10/06 10:39:04;;;;;;;2.05;0.60;;;;;;;17.17;48.72;101008.03;4990452;28;20494;-80
2021/10/06 10:41:57;;;;;;;1.98;0.73;;;;;;;17.15;48.82;101019.16;4991454;28;20590;-80
2021/10/06 10:44:24;;;;;;;1.48;0.63;;;;;;;17.13;48.24;101012.09;4986778;28;20077;-80
2021/10/06 10:47:04;;;;;;;1.25;0.60;;;;;;;17.17;48.58;101021.75;4977937;28;20481;-80
2021/10/06 10:49:48;;;;;;;2.13;0.80;;;;;;;17.16;48.77;101020.88;4965698;28;20063;-79
2021/10/06 10:52:16;;;;;;;2.80;1.00;;;;;;;17.15;48.58;101021.88;4974924;28;20092;-80
2021/10/06 10:54:44;;;;;;;1.85;0.82;;;;;;;17.13;48.87;101035.75;4992427;28;20052;-80
2021/10/06 10:57:28;;;;;;;1.63;0.82;;;;;;;17.13;49.26;101030.25;4969689;28;20089;-79
2021/10/06 10:59:57;;;;;;;2.00;0.80;;;;;;;17.11;49.05;101040.53;4986383;28;20093;-79
2021/10/06 11:02:34;;;;;;;1.50;0.70;;;;;;;17.13;49.43;101041.22;4980775;28;20129;-79
2021/10/06 11:05:06;;;;;;;1.95;0.80;;;;;;;17.13;50.43;101030.25;4968152;28;20070;-79
2021/10/06 11:07:47;;;;;;;1.17;0.60;;;;;;;17.13;49.37;101034.03;4986649;28;20418;-80
2021/10/06 11:10:17;;;;;;;1.02;0.70;;;;;;;17.17;49.23;101041.84;4948971;28;20074;-81
2021/10/06 11:12:53;;;;;;;2.33;0.80;;;;;;;17.22;50.02;101038.66;4989841;28;20494;-81
2021/10/06 11:15:25;;;;;;;2.15;0.90;;;;;;;17.19;49.70;101045.31;4991207;28;20402;-78
2021/10/06 11:18:25;;;;;;;2.67;1.00;;;;;;;17.22;50.01;101050.50;4988289;28;20050;-77
2021/10/06 11:21:03;;;;;;;3.20;1.02;;;;;;;17.24;50.08;101051.22;4942440;28;20054;-78
2021/10/06 11:23:33;;;;;;;1.80;0.90;;;;;;;17.28;49.82;101038.13;4989828;28;20057;-77
2021/10/06 11:26:02;;;;;;;2.40;0.93;;;;;;;17.29;49.60;101048.97;4971235;28;20042;-77
2021/10/06 11:28:30;;;;;;;2.55;1.10;;;;;;;17.31;49.21;101049.66;4986994;28;20409;-76
2021/10/06 11:31:00;;;;;;;2.25;0.95;;;;;;;17.34;49.73;101049.38;4984167;28;20105;-81